Time;durP1;ratioP1;P1;durP2;ratioP2;P2;SDS_P1;SDS_P2;PMS_P1;PMS_P2;Temp;Humidity;BMP_temperature;BMP_pressure;BME280_temperature;BME280_humidity;BME280_pressure;Samples;Min_cycle;Max_cycle;Signal;HPM_P1;HPM_P2
2022/03/04 00:01:14;;;;;;;7.60;7.20;;;;;;;1.25;100.00;100543.31;5071927;28;20391;-64
2022/03/04 00:03:40;;;;;;;7.68;7.28;;;;;;;1.35;100.00;100533.81;5073432;28;20037;-64
2022/03/04 00:06:05;;;;;;;7.90;7.45;;;;;;;1.55;100.00;100540.19;5089570;28;20032;-64
2022/03/04 00:08:31;;;;;;;8.02;7.53;;;;;;;1.41;100.00;100529.09;5070969;28;20046;-67
2022/03/04 00:10:57;;;;;;;8.05;7.55;;;;;;;1.06;100.00;100529.94;5069071;28;20062;-68
2022/03/04 00:13:22;;;;;;;7.20;6.80;;;;;;;1.03;100.00;100536.25;5072026;28;20020;-69
2022/03/04 00:15:48;;;;;;;7.43;7.03;;;;;;;1.05;100.00;100530.91;5071500;28;20032;-66
2022/03/04 00:18:13;;;;;;;7.40;7.00;;;;;;;1.01;100.00;100532.88;5073374;28;20452;-66
2022/03/04 00:20:39;;;;;;;7.57;7.18;;;;;;;1.02;100.00;100531.94;5073971;28;20024;-67
2022/03/04 00:23:05;;;;;;;8.00;7.53;;;;;;;1.08;100.00;100526.25;5073246;28;20119;-68
2022/03/04 00:25:31;;;;;;;7.65;7.25;;;;;;;1.07;100.00;100519.38;5072188;28;20507;-67
2022/03/04 00:27:56;;;;;;;7.35;6.95;;;;;;;1.01;100.00;100526.81;5071364;28;20036;-66
2022/03/04 00:30:22;;;;;;;7.95;7.53;;;;;;;1.00;100.00;100518.16;5069685;28;20074;-66
2022/03/04 00:32:47;;;;;;;7.70;7.30;;;;;;;0.93;100.00;100524.78;5066078;28;20051;-66
2022/03/04 00:35:13;;;;;;;8.35;7.85;;;;;;;0.93;100.00;100519.56;5073221;28;20028;-65
2022/03/04 00:37:39;;;;;;;6.90;6.60;;;;;;;0.90;100.00;100524.19;5073570;28;20032;-65
2022/03/04 00:40:05;;;;;;;8.13;7.63;;;;;;;0.90;100.00;100526.81;5072429;28;20044;-65
2022/03/04 00:42:31;;;;;;;6.90;6.60;;;;;;;0.87;100.00;100527.00;5072323;28;20426;-65
2022/03/04 00:44:56;;;;;;;7.75;7.35;;;;;;;0.88;100.00;100529.50;5073642;28;20078;-66
2022/03/04 00:47:22;;;;;;;7.30;6.90;;;;;;;0.87;100.00;100519.19;5073357;28;20082;-66
2022/03/04 00:49:48;;;;;;;7.88;7.47;;;;;;;0.86;100.00;100531.41;5073286;28;20028;-66
2022/03/04 00:52:13;;;;;;;7.20;6.80;;;;;;;0.84;100.00;100528.06;5072353;28;20032;-66
2022/03/04 00:54:38;;;;;;;7.43;7.03;;;;;;;0.89;100.00;100527.75;5075500;28;20032;-66
2022/03/04 00:57:04;;;;;;;7.32;6.95;;;;;;;0.86;100.00;100523.56;5069050;28;20023;-65
2022/03/04 00:59:30;;;;;;;7.50;7.10;;;;;;;0.94;100.00;100523.00;5074532;28;20055;-67
2022/03/04 01:01:55;;;;;;;7.82;7.43;;;;;;;0.95;100.00;100520.28;5073268;28;20542;-65
2022/03/04 01:04:21;;;;;;;7.35;6.95;;;;;;;0.93;100.00;100521.34;5072995;28;20036;-65
2022/03/04 01:06:47;;;;;;;7.35;6.95;;;;;;;0.97;100.00;100523.63;5073510;28;20073;-65
2022/03/04 01:09:13;;;;;;;7.40;7.00;;;;;;;1.04;100.00;100518.78;5085193;28;20016;-66
2022/03/04 01:11:38;;;;;;;7.47;7.07;;;;;;;0.97;100.00;100507.13;5073207;28;20028;-65
2022/03/04 01:14:05;;;;;;;7.25;6.85;;;;;;;1.05;100.00;100517.84;5070625;28;20074;-66
2022/03/04 01:16:31;;;;;;;7.43;7.03;;;;;;;1.04;100.00;100513.56;5071927;28;20025;-66
2022/03/04 01:18:56;;;;;;;7.38;6.97;;;;;;;1.07;100.00;100508.09;5072900;28;20039;-66
2022/03/04 01:21:22;;;;;;;7.20;6.80;;;;;;;1.05;100.00;100512.59;5073552;28;20033;-66
2022/03/04 01:23:47;;;;;;;7.75;7.35;;;;;;;1.10;100.00;100507.84;5072785;28;20032;-65
2022/03/04 01:26:13;;;;;;;7.40;7.00;;;;;;;1.09;100.00;100507.03;5071307;28;20043;-66
2022/03/04 01:28:39;;;;;;;7.30;6.90;;;;;;;1.10;100.00;100507.84;5073058;28;20062;-66
2022/03/04 01:31:04;;;;;;;7.70;7.30;;;;;;;1.07;100.00;100513.31;5072462;28;20035;-66
2022/03/04 01:33:30;;;;;;;8.43;7.93;;;;;;;1.10;100.00;100508.72;5071552;28;20046;-67
2022/03/04 01:35:55;;;;;;;8.05;7.63;;;;;;;1.03;100.00;100510.13;5072652;28;20039;-67
2022/03/04 01:38:21;;;;;;;7.32;6.93;;;;;;;1.02;100.00;100507.59;5073523;28;20497;-68
2022/03/04 01:40:46;;;;;;;7.60;7.20;;;;;;;1.14;100.00;100514.53;5072441;28;20461;-68
2022/03/04 01:43:12;;;;;;;7.35;6.95;;;;;;;1.01;100.00;100498.94;5071106;28;20031;-68
2022/03/04 01:45:37;;;;;;;7.20;6.80;;;;;;;1.04;100.00;100514.38;5071930;28;20028;-68
2022/03/04 01:48:03;;;;;;;7.72;7.32;;;;;;;1.10;100.00;100510.47;5071901;28;20102;-67
2022/03/04 01:50:28;;;;;;;7.65;7.25;;;;;;;1.07;100.00;100514.16;5071990;28;20024;-67
2022/03/04 01:52:54;;;;;;;7.85;7.45;;;;;;;1.09;100.00;100517.47;5065206;28;20028;-67
2022/03/04 01:55:20;;;;;;;8.20;7.70;;;;;;;1.00;100.00;100501.66;5070167;28;20032;-67
2022/03/04 01:57:45;;;;;;;8.13;7.68;;;;;;;1.03;100.00;100512.72;5071848;28;20021;-67
2022/03/04 02:00:12;;;;;;;7.35;6.95;;;;;;;1.07;100.00;100516.75;5070909;28;20035;-67
2022/03/04 02:02:39;;;;;;;6.97;6.68;;;;;;;1.03;100.00;100509.28;5083814;28;20433;-68
2022/03/04 02:05:05;;;;;;;7.43;7.03;;;;;;;1.11;100.00;100514.78;5072184;28;20108;-67
2022/03/04 02:07:31;;;;;;;7.35;6.95;;;;;;;1.04;100.00;100505.72;5071834;28;20111;-67
2022/03/04 02:09:56;;;;;;;7.70;7.30;;;;;;;1.13;100.00;100514.66;5071808;28;20029;-67
2022/03/04 02:12:22;;;;;;;6.80;6.50;;;;;;;1.09;100.00;100512.25;5068588;28;20067;-67
2022/03/04 02:14:47;;;;;;;7.50;7.10;;;;;;;1.10;100.00;100516.56;5073374;28;20027;-67
2022/03/04 02:17:12;;;;;;;6.68;6.38;;;;;;;1.12;100.00;100515.59;5086132;28;20392;-67
2022/03/04 02:19:38;;;;;;;7.45;7.05;;;;;;;1.15;100.00;100526.63;5064145;28;20034;-68
2022/03/04 02:22:05;;;;;;;6.60;6.30;;;;;;;1.11;100.00;100522.59;5069756;28;20111;-67
2022/03/04 02:24:32;;;;;;;6.90;6.60;;;;;;;1.12;100.00;100519.03;5073104;28;20025;-66
2022/03/04 02:27:00;;;;;;;7.35;6.95;;;;;;;1.11;100.00;100522.59;5071739;28;20025;-67
2022/03/04 02:29:26;;;;;;;7.53;7.13;;;;;;;1.10;100.00;100519.16;5071829;28;20131;-66
2022/03/04 02:31:53;;;;;;;7.85;7.45;;;;;;;1.10;100.00;100519.16;5071560;28;20095;-66
2022/03/04 02:34:19;;;;;;;8.57;8.07;;;;;;;1.06;100.00;100514.28;5068548;28;20074;-67
2022/03/04 02:36:46;;;;;;;7.18;6.82;;;;;;;1.08;100.00;100520.22;5068997;28;20446;-66
2022/03/04 02:39:13;;;;;;;6.90;6.60;;;;;;;1.14;100.00;100514.53;5069752;28;20078;-70
2022/03/04 02:41:38;;;;;;;7.55;7.15;;;;;;;1.04;100.00;100514.38;5071807;28;20488;-67
2022/03/04 02:44:08;;;;;;;7.18;6.82;;;;;;;1.14;100.00;100506.69;5071600;28;20082;-66
2022/03/04 02:46:34;;;;;;;7.82;7.43;;;;;;;1.12;100.00;100507.75;5071390;28;20108;-66
2022/03/04 02:48:59;;;;;;;7.00;6.70;;;;;;;1.06;100.00;100507.25;5071743;28;20036;-65
2022/03/04 02:51:25;;;;;;;7.55;7.15;;;;;;;1.07;100.00;100508.94;5068887;28;20051;-65
2022/03/04 02:53:51;;;;;;;7.65;7.25;;;;;;;1.06;100.00;100504.66;5071829;28;20111;-65
2022/03/04 02:56:17;;;;;;;7.00;6.70;;;;;;;1.03;100.00;100511.91;5071604;28;20441;-66
2022/03/04 02:58:43;;;;;;;7.72;7.32;;;;;;;0.99;100.00;100505.22;5072315;28;20127;-65
2022/03/04 03:01:08;;;;;;;7.10;6.75;;;;;;;1.03;100.00;100507.50;5071650;28;20592;-66
2022/03/04 03:03:34;;;;;;;7.00;6.70;;;;;;;1.03;100.00;100509.28;5072002;28;20024;-65
2022/03/04 03:06:00;;;;;;;8.25;7.78;;;;;;;0.92;100.00;100493.56;5086620;28;20518;-67
2022/03/04 03:08:26;;;;;;;7.25;6.85;;;;;;;1.01;100.00;100503.31;5070467;28;20116;-66
2022/03/04 03:10:51;;;;;;;7.22;6.82;;;;;;;1.08;100.00;100513.19;5069884;28;20033;-66
2022/03/04 03:13:17;;;;;;;7.80;7.40;;;;;;;1.14;100.00;100508.47;5070759;28;20029;-66
2022/03/04 03:15:43;;;;;;;6.80;6.50;;;;;;;1.06;100.00;100507.25;5071048;28;20028;-66
2022/03/04 03:18:08;;;;;;;8.38;7.88;;;;;;;1.12;100.00;100505.97;5071053;28;20036;-66
2022/03/04 03:20:34;;;;;;;7.45;7.05;;;;;;;1.15;100.00;100510.97;5071073;28;20051;-66
2022/03/04 03:22:59;;;;;;;7.72;7.32;;;;;;;1.06;100.00;100501.22;5069496;28;20024;-67
2022/03/04 03:25:25;;;;;;;6.80;6.50;;;;;;;0.99;100.00;100486.94;5071105;28;20024;-66
2022/03/04 03:27:51;;;;;;;8.07;7.57;;;;;;;1.02;100.00;100490.13;5069719;28;20028;-65
2022/03/04 03:30:16;;;;;;;7.57;7.18;;;;;;;1.04;100.00;100496.09;5070802;28;20043;-67
2022/03/04 03:32:42;;;;;;;6.78;6.47;;;;;;;1.03;100.00;100501.44;5069971;28;20495;-66
2022/03/04 03:35:09;;;;;;;7.22;6.82;;;;;;;0.96;100.00;100502.84;5070596;28;20020;-66
2022/03/04 03:37:36;;;;;;;7.38;6.97;;;;;;;0.97;100.00;100504.50;5070129;28;20044;-67
2022/03/04 03:40:05;;;;;;;7.88;7.47;;;;;;;0.95;100.00;100502.00;5070120;28;20103;-66
2022/03/04 03:42:30;;;;;;;7.00;6.70;;;;;;;0.96;100.00;100510.69;5070862;28;20500;-66
2022/03/04 03:44:56;;;;;;;8.27;7.78;;;;;;;0.91;100.00;100515.41;5070528;28;20024;-67
2022/03/04 03:47:22;;;;;;;7.43;7.03;;;;;;;0.90;100.00;100516.34;5070979;28;20039;-65
2022/03/04 03:49:47;;;;;;;7.50;7.10;;;;;;;0.89;100.00;100525.13;5070696;28;20035;-67
2022/03/04 03:52:14;;;;;;;7.13;6.75;;;;;;;0.85;100.00;100521.91;5069813;28;20528;-67
2022/03/04 03:54:40;;;;;;;7.65;7.25;;;;;;;0.92;100.00;100527.50;5068918;28;20032;-65
2022/03/04 03:57:06;;;;;;;7.60;7.20;;;;;;;0.81;100.00;100510.88;5070637;28;20403;-66
2022/03/04 03:59:31;;;;;;;7.95;7.53;;;;;;;0.86;100.00;100525.34;5071513;28;20051;-67
2022/03/04 04:01:58;;;;;;;7.72;7.32;;;;;;;0.87;100.00;100521.78;5070441;28;20025;-67
2022/03/04 04:04:24;;;;;;;7.65;7.25;;;;;;;0.79;100.00;100517.13;5070667;28;20116;-66
2022/03/04 04:06:50;;;;;;;7.53;7.13;;;;;;;0.79;100.00;100527.56;5070974;28;20112;-67
2022/03/04 04:09:16;;;;;;;7.68;7.28;;;;;;;0.77;100.00;100527.69;5071873;28;20049;-67
2022/03/04 04:11:43;;;;;;;7.85;7.45;;;;;;;0.80;100.00;100524.84;5074331;28;20024;-67
2022/03/04 04:14:09;;;;;;;7.68;7.28;;;;;;;0.76;100.00;100525.19;5075700;28;20046;-68
2022/03/04 04:16:36;;;;;;;7.78;7.38;;;;;;;0.70;100.00;100529.06;5074026;28;20112;-67
2022/03/04 04:19:02;;;;;;;7.35;6.95;;;;;;;0.82;100.00;100535.19;5073139;28;20489;-67
2022/03/04 04:21:28;;;;;;;7.72;7.32;;;;;;;0.74;100.00;100529.72;5072775;28;20127;-67
2022/03/04 04:23:55;;;;;;;8.25;7.75;;;;;;;0.78;100.00;100536.34;5073328;28;20119;-67
2022/03/04 04:26:21;;;;;;;7.50;7.10;;;;;;;0.82;100.00;100540.44;5082723;28;20027;-67
2022/03/04 04:28:47;;;;;;;7.47;7.07;;;;;;;0.86;100.00;100544.47;5075571;28;20021;-67
2022/03/04 04:31:12;;;;;;;8.30;7.80;;;;;;;0.86;100.00;100536.63;5072178;28;20028;-67
2022/03/04 04:33:38;;;;;;;8.18;7.68;;;;;;;0.91;100.00;100546.75;5073276;28;20120;-68
2022/03/04 04:36:04;;;;;;;7.00;6.65;;;;;;;0.87;100.00;100546.13;5069777;28;20063;-67
2022/03/04 04:38:29;;;;;;;7.63;7.22;;;;;;;0.85;100.00;100549.81;5072399;28;20039;-67
2022/03/04 04:40:55;;;;;;;7.93;7.47;;;;;;;0.89;100.00;100548.66;5072435;28;20059;-68
2022/03/04 04:43:21;;;;;;;7.20;6.82;;;;;;;0.87;100.00;100551.34;5073590;28;20016;-67
2022/03/04 04:45:46;;;;;;;8.07;7.57;;;;;;;0.85;100.00;100560.25;5073562;28;20475;-67
2022/03/04 04:48:11;;;;;;;7.75;7.35;;;;;;;0.89;100.00;100551.25;5074560;28;20024;-68
2022/03/04 04:50:37;;;;;;;7.70;7.30;;;;;;;0.96;100.00;100561.13;5073450;28;20051;-67
2022/03/04 04:53:03;;;;;;;7.40;7.00;;;;;;;0.93;100.00;100566.56;5072703;28;20032;-67
2022/03/04 04:55:29;;;;;;;7.53;7.13;;;;;;;1.00;100.00;100567.78;5073620;28;20035;-66
2022/03/04 04:57:54;;;;;;;7.50;7.10;;;;;;;0.91;100.00;100557.19;5073318;28;20024;-66
2022/03/04 05:00:20;;;;;;;7.97;7.47;;;;;;;1.06;100.00;100569.13;5073321;28;20028;-66
2022/03/04 05:02:45;;;;;;;7.75;7.32;;;;;;;1.04;100.00;100573.63;5072057;28;20078;-66
2022/03/04 05:05:11;;;;;;;7.63;7.22;;;;;;;1.04;100.00;100571.03;5072905;28;20063;-66
2022/03/04 05:07:37;;;;;;;7.35;6.95;;;;;;;1.03;100.00;100569.38;5073357;28;20024;-66
2022/03/04 05:10:04;;;;;;;7.68;7.28;;;;;;;1.03;100.00;100580.66;5071337;28;20031;-66
2022/03/04 05:12:30;;;;;;;8.00;7.50;;;;;;;1.08;100.00;100581.13;5073466;28;20073;-66
2022/03/04 05:14:55;;;;;;;7.43;7.03;;;;;;;1.12;100.00;100581.75;5072876;28;20036;-66
2022/03/04 05:17:24;;;;;;;8.18;7.68;;;;;;;1.19;100.00;100593.41;5072669;28;20032;-65
2022/03/04 05:19:49;;;;;;;9.35;8.73;;;;;;;1.10;100.00;100588.84;5071467;28;20169;-66
2022/03/04 05:22:15;;;;;;;6.88;6.57;;;;;;;1.14;100.00;100592.06;5072262;28;20103;-67
2022/03/04 05:24:40;;;;;;;9.27;8.68;;;;;;;1.16;100.00;100596.22;5071651;28;20140;-65
2022/03/04 05:27:06;;;;;;;8.18;7.68;;;;;;;1.12;100.00;100588.75;5070299;28;20723;-67
2022/03/04 05:29:31;;;;;;;7.78;7.35;;;;;;;1.11;100.00;100587.91;5072495;28;20029;-67
2022/03/04 05:31:57;;;;;;;7.32;6.93;;;;;;;1.10;100.00;100594.06;5072392;28;20024;-67
2022/03/04 05:34:22;;;;;;;8.50;8.00;;;;;;;1.15;100.00;100593.75;5072421;28;20387;-67
2022/03/04 05:36:48;;;;;;;9.50;8.88;;;;;;;1.08;100.00;100599.41;5071042;28;20031;-67
2022/03/04 05:39:13;;;;;;;9.23;8.63;;;;;;;1.17;100.00;100600.50;5086206;28;20043;-66
2022/03/04 05:41:39;;;;;;;7.43;7.03;;;;;;;1.24;100.00;100598.28;5071883;28;20519;-66
2022/03/04 05:44:05;;;;;;;9.27;8.68;;;;;;;1.25;100.00;100606.03;5071847;28;20024;-67
2022/03/04 05:46:31;;;;;;;8.38;7.88;;;;;;;1.20;100.00;100609.91;5087266;28;20020;-67
2022/03/04 05:48:56;;;;;;;7.25;6.85;;;;;;;1.27;100.00;100606.75;5071868;28;20400;-67
2022/03/04 05:51:22;;;;;;;7.85;7.45;;;;;;;1.31;100.00;100609.94;5071806;28;20036;-68
2022/03/04 05:53:49;;;;;;;8.73;8.20;;;;;;;1.31;100.00;100616.00;5069227;28;20027;-66
2022/03/04 05:56:15;;;;;;;10.90;10.10;;;;;;;1.26;100.00;100606.88;5069574;28;20024;-66
2022/03/04 05:58:40;;;;;;;10.27;9.55;;;;;;;1.34;100.00;100621.03;5070673;28;20048;-67
2022/03/04 06:01:06;;;;;;;8.23;7.72;;;;;;;1.40;100.00;100614.53;5070111;28;20074;-67
2022/03/04 06:03:32;;;;;;;9.20;8.60;;;;;;;1.40;100.00;100619.75;5073162;28;20475;-67
2022/03/04 06:05:58;;;;;;;7.90;7.47;;;;;;;1.39;100.00;100618.06;5073159;28;20491;-67
2022/03/04 06:08:25;;;;;;;7.20;6.80;;;;;;;1.34;100.00;100615.81;5072862;28;20029;-67
2022/03/04 06:10:50;;;;;;;7.13;6.72;;;;;;;1.38;100.00;100619.84;5071781;28;20040;-66
2022/03/04 06:13:16;;;;;;;7.78;7.38;;;;;;;1.52;100.00;100615.38;5071831;28;20021;-66
2022/03/04 06:15:41;;;;;;;7.90;7.50;;;;;;;1.53;100.00;100620.47;5070782;28;20047;-67
2022/03/04 06:18:08;;;;;;;7.40;7.00;;;;;;;1.71;100.00;100620.91;5070719;28;20027;-66
2022/03/04 06:20:33;;;;;;;7.78;7.38;;;;;;;1.53;100.00;100620.47;5071683;28;20541;-65
2022/03/04 06:23:00;;;;;;;8.20;7.70;;;;;;;1.63;100.00;100624.09;5070562;28;20044;-66
2022/03/04 06:25:26;;;;;;;7.85;7.45;;;;;;;1.73;100.00;100626.84;5083467;28;20101;-66
2022/03/04 06:28:00;;;;;;;7.18;6.88;;;;;;;1.93;100.00;100631.41;5071800;28;20024;-66
2022/03/04 06:30:29;;;;;;;6.72;6.43;;;;;;;2.02;100.00;100631.66;5071358;28;20116;-66
2022/03/04 06:35:40;;;;;;;7.63;7.22;;;;;;;1.97;100.00;100636.38;5069263;28;20043;-68
2022/03/04 06:38:06;;;;;;;8.27;7.78;;;;;;;2.07;100.00;100635.59;5071054;28;20043;-66
2022/03/04 06:40:32;;;;;;;7.40;7.00;;;;;;;2.11;100.00;100642.22;5070788;28;20123;-65
2022/03/04 06:42:58;;;;;;;7.38;6.97;;;;;;;1.96;100.00;100639.97;5070605;28;20021;-67
2022/03/04 06:45:24;;;;;;;7.22;6.85;;;;;;;2.03;100.00;100633.31;5070443;28;20048;-66
2022/03/04 06:47:51;;;;;;;7.80;7.40;;;;;;;2.02;100.00;100642.13;5070315;28;20033;-66
2022/03/04 06:50:17;;;;;;;7.43;7.03;;;;;;;1.96;100.00;100637.34;5071012;28;20095;-66
2022/03/04 06:52:43;;;;;;;7.63;7.22;;;;;;;2.06;100.00;100647.00;5068982;28;20040;-66
2022/03/04 06:55:09;;;;;;;8.07;7.60;;;;;;;2.03;100.00;100655.06;5070861;28;20094;-67
2022/03/04 06:57:35;;;;;;;8.07;7.63;;;;;;;1.87;100.00;100644.94;5072350;28;20063;-66
2022/03/04 07:00:00;;;;;;;7.50;7.10;;;;;;;2.27;100.00;100646.28;5069175;28;20064;-67
2022/03/04 07:02:26;;;;;;;7.43;7.03;;;;;;;2.13;100.00;100649.97;5069315;28;20026;-67
2022/03/04 07:04:51;;;;;;;7.70;7.30;;;;;;;2.04;100.00;100655.91;5071104;28;20059;-67
2022/03/04 07:07:17;;;;;;;7.13;6.82;;;;;;;2.17;100.00;100657.47;5064356;28;20024;-67
2022/03/04 07:09:42;;;;;;;7.78;7.38;;;;;;;2.07;100.00;100653.91;5071146;28;20033;-66
2022/03/04 07:12:08;;;;;;;7.40;7.00;;;;;;;2.07;100.00;100655.69;5067370;28;20127;-66
2022/03/04 07:14:34;;;;;;;10.10;9.40;;;;;;;2.82;100.00;100658.53;5068666;28;20389;-71
2022/03/04 07:16:59;;;;;;;7.90;7.50;;;;;;;2.48;100.00;100642.00;5064866;28;20102;-67
2022/03/04 07:19:25;;;;;;;7.45;7.05;;;;;;;2.61;100.00;100639.28;5079590;28;20021;-68
2022/03/04 07:21:50;;;;;;;8.27;7.78;;;;;;;2.76;100.00;100651.16;5071057;28;20040;-68
2022/03/04 07:24:16;;;;;;;8.73;8.23;;;;;;;2.83;100.00;100654.13;5070460;28;20021;-67
2022/03/04 07:26:42;;;;;;;7.57;7.18;;;;;;;2.76;100.00;100661.63;5074763;28;20111;-67
2022/03/04 07:29:07;;;;;;;7.72;7.32;;;;;;;2.81;100.00;100656.88;5069802;28;20027;-66
2022/03/04 07:31:34;;;;;;;7.45;7.05;;;;;;;2.60;100.00;100658.56;5070824;28;20442;-67
2022/03/04 07:33:59;;;;;;;7.82;7.43;;;;;;;2.59;100.00;100655.09;5070984;28;20145;-68
2022/03/04 07:36:26;;;;;;;6.93;6.63;;;;;;;2.63;100.00;100655.69;5070989;28;20111;-69
2022/03/04 07:38:55;;;;;;;7.72;7.32;;;;;;;2.85;100.00;100657.44;5070846;28;20021;-68
2022/03/04 07:41:20;;;;;;;7.30;6.90;;;;;;;2.97;100.00;100657.31;5069809;28;20559;-66
2022/03/04 07:43:47;;;;;;;8.00;7.60;;;;;;;3.09;100.00;100657.28;5069747;28;20080;-66
2022/03/04 07:46:13;;;;;;;7.90;7.50;;;;;;;3.07;100.00;100661.81;5072641;28;20033;-68
2022/03/04 07:48:38;;;;;;;7.63;7.22;;;;;;;3.08;100.00;100660.84;5084180;28;20077;-68
2022/03/04 07:51:05;;;;;;;7.47;7.07;;;;;;;3.11;100.00;100668.47;5073874;28;20024;-68
2022/03/04 07:53:30;;;;;;;7.07;6.75;;;;;;;3.11;100.00;100660.63;5076772;28;20032;-69
2022/03/04 07:55:56;;;;;;;7.30;6.90;;;;;;;2.80;100.00;100670.94;5073960;28;20103;-69
2022/03/04 07:58:21;;;;;;;8.27;7.78;;;;;;;2.73;100.00;100672.38;5073792;28;20041;-70
2022/03/04 08:00:47;;;;;;;7.85;7.45;;;;;;;2.76;100.00;100665.09;5073338;28;20498;-69
2022/03/04 08:03:13;;;;;;;7.55;7.15;;;;;;;2.90;100.00;100674.47;5073343;28;20115;-69
2022/03/04 08:05:39;;;;;;;8.20;7.70;;;;;;;2.92;100.00;100677.78;5073766;28;20078;-70
2022/03/04 08:08:05;;;;;;;8.48;7.97;;;;;;;2.83;100.00;100675.09;5069272;28;20036;-69
2022/03/04 08:10:30;;;;;;;7.85;7.45;;;;;;;2.93;100.00;100666.34;5073652;28;20558;-71
2022/03/04 08:12:56;;;;;;;8.25;7.75;;;;;;;2.86;100.00;100675.66;5069850;28;20032;-69
2022/03/04 08:15:21;;;;;;;7.60;7.20;;;;;;;3.11;100.00;100664.06;5086052;28;20025;-69
2022/03/04 08:17:47;;;;;;;7.80;7.40;;;;;;;3.09;100.00;100662.53;5070129;28;20063;-70
2022/03/04 08:20:12;;;;;;;8.15;7.70;;;;;;;3.06;100.00;100674.09;5070913;28;20043;-71
2022/03/04 08:22:40;;;;;;;7.75;7.35;;;;;;;3.26;100.00;100670.69;5070452;28;20147;-72
2022/03/04 08:25:07;;;;;;;8.45;7.95;;;;;;;3.33;99.46;100668.41;5069890;28;20082;-71
2022/03/04 08:27:38;;;;;;;8.45;7.95;;;;;;;3.17;100.00;100666.19;5072950;28;20073;-71
2022/03/04 08:30:06;;;;;;;8.52;8.02;;;;;;;3.09;98.04;100667.78;5071932;28;20028;-70
2022/03/04 08:32:31;;;;;;;7.38;6.97;;;;;;;3.21;98.13;100672.84;5061553;28;20483;-67
2022/03/04 08:34:59;;;;;;;7.47;7.07;;;;;;;3.34;98.75;100672.69;5072973;28;20044;-67
2022/03/04 08:37:24;;;;;;;7.22;6.90;;;;;;;3.11;99.35;100665.84;5074808;28;20031;-66
2022/03/04 08:39:50;;;;;;;8.95;8.43;;;;;;;3.03;100.00;100675.16;5073462;28;20032;-66
2022/03/04 08:42:15;;;;;;;10.32;9.63;;;;;;;2.98;100.00;100674.69;5071019;28;20031;-66
2022/03/04 08:44:42;;;;;;;8.52;8.02;;;;;;;3.14;100.00;100681.31;5071863;28;20032;-68
2022/03/04 08:47:07;;;;;;;8.25;7.75;;;;;;;2.96;100.00;100681.03;5071707;28;20119;-68
2022/03/04 08:49:34;;;;;;;7.30;6.90;;;;;;;2.94;100.00;100675.91;5072041;28;20115;-71
2022/03/04 08:52:00;;;;;;;8.43;7.93;;;;;;;3.04;100.00;100683.88;5072977;28;20086;-71
2022/03/04 08:54:26;;;;;;;8.32;7.82;;;;;;;3.08;100.00;100685.25;5074551;28;20031;-73
2022/03/04 08:56:51;;;;;;;8.65;8.15;;;;;;;3.21;99.50;100685.13;5089478;28;20129;-71
2022/03/04 08:59:17;;;;;;;8.57;8.07;;;;;;;3.18;98.98;100690.63;5074254;28;20072;-70
2022/03/04 09:01:42;;;;;;;9.13;8.57;;;;;;;3.22;97.91;100686.78;5071988;28;20024;-72
2022/03/04 09:04:08;;;;;;;9.13;8.55;;;;;;;3.41;97.49;100688.75;5071065;28;20654;-73
2022/03/04 09:06:33;;;;;;;8.80;8.27;;;;;;;3.14;97.61;100694.44;5068969;28;20036;-71
2022/03/04 09:08:59;;;;;;;8.55;8.05;;;;;;;3.30;97.19;100682.59;5072317;28;20028;-73
2022/03/04 09:11:24;;;;;;;7.10;6.80;;;;;;;3.33;96.63;100689.38;5072120;28;20024;-72
2022/03/04 09:13:57;;;;;;;7.57;7.18;;;;;;;3.35;96.82;100694.50;5069146;28;20047;-73
2022/03/04 09:16:22;;;;;;;7.93;7.50;;;;;;;3.55;95.25;100698.97;5072205;28;20028;-71
2022/03/04 09:18:48;;;;;;;7.25;6.90;;;;;;;3.51;95.41;100698.38;5071445;28;20032;-72
2022/03/04 09:21:13;;;;;;;7.68;7.28;;;;;;;3.55;94.72;100693.72;5071827;28;20119;-70
2022/03/04 09:23:39;;;;;;;8.77;8.27;;;;;;;3.48;92.71;100693.38;5071381;28;20123;-72
2022/03/04 09:26:04;;;;;;;8.48;7.97;;;;;;;3.40;92.31;100687.94;5070995;28;20360;-71
2022/03/04 09:28:30;;;;;;;7.85;7.45;;;;;;;3.63;91.00;100679.97;5071601;28;20040;-71
2022/03/04 09:30:59;;;;;;;7.75;7.35;;;;;;;3.59;90.96;100685.47;5072569;28;20038;-73
2022/03/04 09:33:27;;;;;;;7.60;7.20;;;;;;;3.62;90.50;100665.19;5072577;28;20054;-74
2022/03/04 09:35:53;;;;;;;7.45;7.05;;;;;;;3.81;90.40;100691.56;5070398;28;20056;-71
2022/03/04 09:38:19;;;;;;;7.60;7.20;;;;;;;3.76;91.64;100691.13;5071519;28;20032;-72
2022/03/04 09:40:48;;;;;;;8.38;7.88;;;;;;;3.59;91.74;100674.97;5071335;28;20027;-74
2022/03/04 09:43:17;;;;;;;7.68;7.28;;;;;;;3.88;90.42;100680.44;5072246;28;20107;-72
2022/03/04 09:45:46;;;;;;;7.43;7.03;;;;;;;3.85;89.73;100680.69;5072381;28;20495;-73
2022/03/04 09:48:12;;;;;;;8.68;8.18;;;;;;;3.96;90.85;100682.41;5070260;28;20056;-73
2022/03/04 09:50:38;;;;;;;8.85;8.35;;;;;;;3.78;90.43;100684.78;5070919;28;20416;-71
2022/03/04 09:53:09;;;;;;;7.70;7.30;;;;;;;3.63;92.12;100682.59;5083459;28;20047;-73
2022/03/04 09:55:36;;;;;;;8.52;8.02;;;;;;;3.55;92.83;100680.59;5070805;28;20039;-72
2022/03/04 09:58:02;;;;;;;9.88;9.25;;;;;;;3.65;91.53;100678.06;5068921;28;20048;-70
2022/03/04 10:00:27;;;;;;;7.40;7.00;;;;;;;3.64;91.83;100681.63;5069142;28;20039;-71
2022/03/04 10:02:53;;;;;;;7.90;7.50;;;;;;;3.51;91.95;100685.25;5071694;28;20024;-70
2022/03/04 10:05:18;;;;;;;8.15;7.70;;;;;;;3.63;91.35;100687.84;5070969;28;20032;-66
2022/03/04 10:07:47;;;;;;;8.52;8.02;;;;;;;3.79;90.62;100688.25;5071276;28;20446;-67
2022/03/04 10:10:17;;;;;;;8.05;7.63;;;;;;;3.81;90.99;100670.56;5070355;28;20475;-69
2022/03/04 10:12:49;;;;;;;7.72;7.32;;;;;;;3.78;91.01;100682.16;5069856;28;20029;-67
2022/03/04 10:15:14;;;;;;;8.00;7.60;;;;;;;3.99;90.27;100673.47;5070649;28;20024;-66
2022/03/04 10:17:40;;;;;;;7.50;7.10;;;;;;;3.83;91.23;100671.28;5083350;28;20047;-70
2022/03/04 10:20:09;;;;;;;8.05;7.65;;;;;;;3.91;90.34;100666.22;5071626;28;20052;-68
2022/03/04 10:22:42;;;;;;;7.95;7.55;;;;;;;3.85;89.95;100669.38;5070363;28;20037;-70
2022/03/04 10:25:20;;;;;;;7.35;6.95;;;;;;;4.01;89.83;100674.16;5070063;28;20059;-70
2022/03/04 10:27:47;;;;;;;8.25;7.75;;;;;;;4.21;90.07;100662.81;5070615;28;20048;-70
2022/03/04 10:30:15;;;;;;;8.40;7.90;;;;;;;4.29;89.53;100670.03;5070118;28;20025;-70
2022/03/04 10:32:40;;;;;;;8.43;7.93;;;;;;;4.17;89.67;100669.28;5056334;28;22210;-71
2022/03/04 10:35:10;;;;;;;8.02;7.57;;;;;;;4.03;90.57;100659.94;5065631;28;20037;-69
2022/03/04 10:37:40;;;;;;;8.20;7.72;;;;;;;4.04;91.46;100664.25;5069248;28;20046;-71
2022/03/04 10:40:13;;;;;;;7.70;7.30;;;;;;;3.83;92.34;100663.41;5085307;28;20508;-70
2022/03/04 10:42:40;;;;;;;7.65;7.25;;;;;;;3.92;92.27;100665.28;5071089;28;20099;-70
2022/03/04 10:45:12;;;;;;;7.80;7.40;;;;;;;3.83;92.47;100656.38;5067059;28;20542;-71
2022/03/04 10:47:44;;;;;;;8.40;7.90;;;;;;;4.01;92.02;100661.88;5070666;28;20086;-70
2022/03/04 10:50:14;;;;;;;7.75;7.35;;;;;;;3.82;91.09;100654.72;5070303;28;20035;-71
2022/03/04 10:52:59;;;;;;;7.93;7.53;;;;;;;3.92;90.93;100646.91;5072162;28;20041;-70
2022/03/04 10:55:30;;;;;;;7.88;7.47;;;;;;;3.98;91.97;100656.06;5070489;28;20058;-70
2022/03/04 10:57:57;;;;;;;8.50;8.00;;;;;;;3.97;92.65;100659.66;5069309;28;20016;-70
2022/03/04 11:00:24;;;;;;;8.25;7.75;;;;;;;3.89;92.78;100639.25;5070140;28;20059;-70
2022/03/04 11:02:51;;;;;;;7.75;7.35;;;;;;;4.23;91.31;100654.81;5070601;28;20082;-70
2022/03/04 11:05:18;;;;;;;7.28;6.88;;;;;;;4.25;90.00;100651.06;5070022;28;20023;-70
2022/03/04 11:07:43;;;;;;;7.85;7.45;;;;;;;4.07;90.17;100655.28;5068788;28;20028;-72
2022/03/04 11:10:10;;;;;;;7.65;7.25;;;;;;;4.24;90.29;100651.22;5070447;28;20094;-69
2022/03/04 11:12:35;;;;;;;8.43;7.93;;;;;;;4.43;88.25;100652.13;5070071;28;20472;-70
2022/03/04 11:15:01;;;;;;;7.75;7.35;;;;;;;4.38;87.90;100650.88;5069657;28;20040;-71
2022/03/04 11:17:29;;;;;;;7.65;7.25;;;;;;;4.40;88.39;100648.94;5082939;28;20185;-69
2022/03/04 11:19:56;;;;;;;8.43;7.93;;;;;;;4.32;88.66;100654.84;5076004;28;20128;-69
2022/03/04 11:22:22;;;;;;;7.43;7.03;;;;;;;4.02;87.91;100647.78;5077592;28;20028;-71
2022/03/04 11:24:47;;;;;;;8.10;7.70;;;;;;;4.06;88.62;100651.00;5075970;28;20032;-69